Reinoy — LAPF — position and weather

sailwx.info

Track history (hours):
 
Tides and Currents Weather Stations Pressure Air Temp Water Temp Dewpoint Dewpoint Depression Visibility Wind Speed Wind Dir Waves Ship Positions

Reinoy

Last reported at 2017-Nov-24 20:30 UTC. Time now 2017-Nov-24 20:41 UTC.
Position N 70°02' E 020°51'.

Length 46 m; draft 3 m.

Type: Passenger vessel. MMSI: 257350400.

Date/timePositionNaut miles runAvg speedWind from/ knotsBaromVisibWave heightAir tempDewpointWater temp
2017-Nov-24 20:30N 70°02' E 020°51'0 0.0
2017-Nov-24 20:00N 70°02' E 020°51'3 6.3
2017-Nov-24 19:30N 70°05' E 020°47'3 6.2
2017-Nov-24 19:00N 70°02' E 020°51'0 0.0
2017-Nov-24 18:30N 70°02' E 020°51'0 0.0
2017-Nov-24 18:00N 70°02' E 020°51'3 6.3
2017-Nov-24 17:30N 70°05' E 020°47'3 6.1
2017-Nov-24 17:00N 70°02' E 020°51'0 0.0
2017-Nov-24 16:30N 70°02' E 020°51'3 6.4
2017-Nov-24 16:00N 70°05' E 020°47'3 6.4
2017-Nov-24 15:30N 70°02' E 020°51'3 6.2
2017-Nov-24 15:00N 70°05' E 020°47'3 6.2
2017-Nov-24 14:30N 70°02' E 020°51'3 6.1
2017-Nov-24 14:00N 70°05' E 020°47'3 6.2
2017-Nov-24 13:30N 70°02' E 020°51'3 6.1
2017-Nov-24 12:59N 70°05' E 020°47'3 6.5
2017-Nov-24 12:30N 70°02' E 020°51'3 6.1
2017-Nov-24 12:00N 70°05' E 020°47'3 6.2
2017-Nov-24 11:29N 70°02' E 020°51'0 0.0
2017-Nov-24 11:00N 70°02' E 020°51'0 0.8
2017-Nov-24 10:30N 70°02' E 020°51'2 4.2
2017-Nov-24 09:58N 70°04' E 020°49'3 5.4
2017-Nov-24 09:29N 70°02' E 020°51'0 0.1
2017-Nov-24 09:00N 70°02' E 020°51'3 6.3
2017-Nov-24 08:30N 70°05' E 020°47'3 5.7
2017-Nov-24 07:58N 70°02' E 020°51'0 0.0
2017-Nov-24 07:28N 70°02' E 020°51'0 0.0
2017-Nov-24 06:58N 70°02' E 020°51'0 0.0
2017-Nov-24 06:28N 70°02' E 020°51'0 0.0
2017-Nov-24 05:58N 70°02' E 020°51'0 0.0
2017-Nov-24 05:28N 70°02' E 020°51'0 0.0
2017-Nov-24 04:58N 70°02' E 020°51'0 0.0
2017-Nov-24 04:28N 70°02' E 020°51'0 0.0
2017-Nov-24 04:01N 70°02' E 020°51'0 0.0
2017-Nov-24 03:31N 70°02' E 020°51'0 0.0
2017-Nov-24 03:01N 70°02' E 020°51'0 0.0
2017-Nov-24 02:27N 70°02' E 020°51'0 0.0
2017-Nov-24 02:00N 70°02' E 020°51'0 0.0
2017-Nov-24 01:30N 70°02' E 020°51'0 0.0
2017-Nov-24 01:00N 70°02' E 020°51'0 0.0
2017-Nov-24 00:30N 70°02' E 020°51'0 0.0
2017-Nov-24 00:00N 70°02' E 020°51'0 0.0
2017-Nov-23 23:30N 70°02' E 020°51'0 0.0
2017-Nov-23 23:00N 70°02' E 020°51'0 0.0
2017-Nov-23 22:30N 70°02' E 020°51'0 0.0
2017-Nov-23 22:00N 70°02' E 020°51'0 0.0
2017-Nov-23 21:30N 70°02' E 020°51'0 0.0
2017-Nov-23 21:00N 70°02' E 020°51'0 0.0
2017-Nov-23 20:30N 70°02' E 020°51'0 0.0
2017-Nov-23 20:00N 70°02' E 020°51'0 0.0
2017-Nov-23 19:30N 70°02' E 020°51'0 0.0
2017-Nov-23 19:00N 70°02' E 020°51'0 0.0
2017-Nov-23 18:30N 70°02' E 020°51'0 0.0
2017-Nov-23 18:00N 70°02' E 020°51'0 0.0
2017-Nov-23 17:30N 70°02' E 020°51'0 0.0
2017-Nov-23 17:00N 70°02' E 020°51'0 0.0
2017-Nov-23 16:30N 70°02' E 020°51'0 0.0
2017-Nov-23 16:00N 70°02' E 020°51'0 0.0
2017-Nov-23 15:30N 70°02' E 020°51'0 0.0
2017-Nov-23 15:00N 70°02' E 020°51'0 0.0
2017-Nov-23 14:30N 70°02' E 020°51'0 0.0
2017-Nov-23 14:00N 70°02' E 020°51'0 0.0
2017-Nov-23 13:27N 70°02' E 020°51'0 0.0
2017-Nov-23 13:00N 70°02' E 020°51'0 0.0
2017-Nov-23 12:30N 70°02' E 020°51'3 6.2
2017-Nov-23 11:59N 70°05' E 020°47'3 6.4
2017-Nov-23 11:30N 70°02' E 020°51'0 0.0
2017-Nov-23 11:00N 70°02' E 020°51'0 0.0
2017-Nov-23 10:30N 70°02' E 020°51'3 5.1
2017-Nov-23 10:00N 70°04' E 020°49'3 5.2
2017-Nov-23 09:30N 70°02' E 020°51'0 0.0
2017-Nov-23 09:00N 70°02' E 020°51'3 6.1
2017-Nov-23 08:30N 70°05' E 020°47'3 6.3
2017-Nov-23 08:00N 70°02' E 020°51'3 6.2
2017-Nov-23 07:30N 70°05' E 020°47'3 6.2
2017-Nov-23 07:00N 70°02' E 020°51'1 1.8
2017-Nov-23 06:30N 70°03' E 020°50'1 2.9
2017-Nov-23 06:00N 70°04' E 020°48'2 4.7
2017-Nov-23 05:30N 70°02' E 020°51'0 0.0
2017-Nov-23 05:00N 70°02' E 020°51'0 0.0
2017-Nov-23 04:29N 70°02' E 020°51'0 0.0
2017-Nov-23 04:00N 70°02' E 020°51'0 0.0
2017-Nov-23 03:30N 70°02' E 020°51'0 0.0
2017-Nov-23 03:00N 70°02' E 020°51'0 0.0
2017-Nov-23 02:30N 70°02' E 020°51'0 0.0
2017-Nov-23 02:00N 70°02' E 020°51'0 0.0
2017-Nov-23 01:30N 70°02' E 020°51'0 0.0
2017-Nov-23 01:00N 70°02' E 020°51'0 0.0
2017-Nov-23 00:29N 70°02' E 020°51'0 0.0
2017-Nov-23 00:00N 70°02' E 020°51'0 0.0
2017-Nov-22 23:30N 70°02' E 020°51'0 0.0
2017-Nov-22 23:00N 70°02' E 020°51'1 1.3
2017-Nov-22 22:30N 70°03' E 020°51'1 1.2
2017-Nov-22 22:00N 70°03' E 020°50'1 2.6
2017-Nov-22 21:30N 70°02' E 020°51'3 6.3
2017-Nov-22 21:00N 70°05' E 020°47'3 6.2
2017-Nov-22 20:30N 70°02' E 020°51'0 0.0
2017-Nov-22 19:59N 70°02' E 020°51'3 6.3
2017-Nov-22 19:30N 70°05' E 020°47'  
2017-Nov-20 00:30N 70°02' E 020°51'0 0.0
2017-Nov-20 00:00N 70°02' E 020°51'0 0.0
2017-Nov-19 23:30N 70°02' E 020°51'0 0.0
2017-Nov-19 23:00N 70°02' E 020°51'0 0.0
2017-Nov-19 22:30N 70°02' E 020°51'0 0.0
2017-Nov-19 22:00N 70°02' E 020°51'2 5.1
2017-Nov-19 21:30N 70°04' E 020°48'2 4.9
2017-Nov-19 21:00N 70°02' E 020°51'0 0.0
2017-Nov-19 20:28N 70°02' E 020°51'0 0.0
2017-Nov-19 19:58N 70°02' E 020°51'0 0.0
2017-Nov-19 19:28N 70°02' E 020°51'0 0.0
2017-Nov-19 18:57N 70°02' E 020°51'3 7.0
2017-Nov-19 18:31N 70°05' E 020°47'3 6.1
2017-Nov-19 18:00N 70°02' E 020°51'0 0.1
2017-Nov-19 17:30N 70°02' E 020°51'3 6.4
2017-Nov-19 17:00N 70°05' E 020°47'3 6.3
2017-Nov-19 16:30N 70°02' E 020°51'0 0.0
2017-Nov-19 16:00N 70°02' E 020°51'0 0.0
2017-Nov-19 15:30N 70°02' E 020°51'3 6.2
2017-Nov-19 15:00N 70°05' E 020°47'3 6.2
2017-Nov-19 14:29N 70°02' E 020°51'3 6.3
2017-Nov-19 14:00N 70°05' E 020°47'3 6.4
2017-Nov-19 13:30N 70°02' E 020°51'0 0.0
2017-Nov-19 13:00N 70°02' E 020°51'0 0.0
2017-Nov-19 12:27N 70°02' E 020°51'0 0.0
2017-Nov-19 12:00N 70°02' E 020°51'0 0.0
2017-Nov-19 11:30N 70°02' E 020°51'0 0.0
2017-Nov-19 11:00N 70°02' E 020°51'0 0.0
2017-Nov-19 10:29N 70°02' E 020°51'0 0.0
2017-Nov-19 09:59N 70°02' E 020°51'3 6.2
2017-Nov-19 09:29N 70°05' E 020°47'3 6.3
2017-Nov-19 09:00N 70°02' E 020°51'0 0.0
2017-Nov-19 08:28N 70°02' E 020°51'0 0.0
2017-Nov-19 07:58N 70°02' E 020°51'0 0.0
2017-Nov-19 07:28N 70°02' E 020°51'0 0.0
2017-Nov-19 06:58N 70°02' E 020°51'0 0.0
2017-Nov-19 06:28N 70°02' E 020°51'0 0.0
2017-Nov-19 05:58N 70°02' E 020°51'0 0.0
2017-Nov-19 05:28N 70°02' E 020°51'0 0.0
2017-Nov-19 04:58N 70°02' E 020°51'0 0.0
2017-Nov-19 04:28N 70°02' E 020°51'0 0.0
2017-Nov-19 03:58N 70°02' E 020°51'0 0.0
2017-Nov-19 03:28N 70°02' E 020°51'0 0.0
2017-Nov-19 02:58N 70°02' E 020°51'0 0.0
2017-Nov-19 02:28N 70°02' E 020°51'0 0.0
2017-Nov-19 01:58N 70°02' E 020°51'0 0.0
2017-Nov-19 01:28N 70°02' E 020°51'0 0.0
2017-Nov-19 00:58N 70°02' E 020°51'0 0.0
2017-Nov-19 00:28N 70°02' E 020°51'0 0.0
2017-Nov-18 23:58N 70°02' E 020°51'0 0.0
2017-Nov-18 23:28N 70°02' E 020°51'0 0.0
2017-Nov-18 22:58N 70°02' E 020°51'0 0.0
2017-Nov-18 22:28N 70°02' E 020°51'0 0.0
2017-Nov-18 21:58N 70°02' E 020°51'2 4.7
2017-Nov-18 21:30N 70°04' E 020°49'2 4.8
2017-Nov-18 21:01N 70°02' E 020°51'0 0.2
2017-Nov-18 20:30N 70°02' E 020°51'0 0.0
2017-Nov-18 20:00N 70°02' E 020°51'0 0.0
2017-Nov-18 19:30N 70°02' E 020°51'0 0.0
2017-Nov-18 19:00N 70°02' E 020°51'0 0.0
2017-Nov-18 18:30N 70°02' E 020°51'0 0.0
2017-Nov-18 18:00N 70°02' E 020°51'3 6.1
2017-Nov-18 17:29N 70°05' E 020°47'3 6.3
2017-Nov-18 17:00N 70°02' E 020°51'0 0.0
2017-Nov-18 16:30N 70°02' E 020°51'3 6.1
2017-Nov-18 15:59N 70°05' E 020°47'3 6.3
2017-Nov-18 15:30N 70°02' E 020°51'0 0.0
2017-Nov-18 14:59N 70°02' E 020°51'0 0.0
2017-Nov-18 14:29N 70°02' E 020°51'0 0.0
2017-Nov-18 14:00N 70°02' E 020°51'3 6.3
2017-Nov-18 13:30N 70°05' E 020°47'3 6.2
2017-Nov-18 13:00N 70°02' E 020°51'0 0.0
2017-Nov-18 12:29N 70°02' E 020°51'0 0.0
2017-Nov-18 11:59N 70°02' E 020°51'0 0.0
2017-Nov-18 11:29N 70°02' E 020°51'0 0.0
2017-Nov-18 10:59N 70°02' E 020°51'0 0.0
2017-Nov-18 10:29N 70°02' E 020°51'0 0.0
2017-Nov-18 10:00N 70°02' E 020°51'3 6.1
2017-Nov-18 09:29N 70°05' E 020°47'3 6.3
2017-Nov-18 09:00N 70°02' E 020°51'0 0.0
2017-Nov-18 08:30N 70°02' E 020°51'0 0.0
2017-Nov-18 08:00N 70°02' E 020°51'3 6.1
2017-Nov-18 07:30N 70°05' E 020°47'3 6.2
2017-Nov-18 06:59N 70°02' E 020°51'0 0.0
2017-Nov-18 06:30N 70°02' E 020°51'0 0.0
2017-Nov-18 06:00N 70°02' E 020°51'0 0.0
2017-Nov-18 05:30N 70°02' E 020°51'0 0.0
2017-Nov-18 05:00N 70°02' E 020°51'0 0.0
2017-Nov-18 04:30N 70°02' E 020°51'0 0.0
2017-Nov-18 04:00N 70°02' E 020°51'0 0.0
2017-Nov-18 03:30N 70°02' E 020°51'0 0.0
2017-Nov-18 03:00N 70°02' E 020°51'0 0.0
2017-Nov-18 02:27N 70°02' E 020°51'0 0.0
2017-Nov-18 02:00N 70°02' E 020°51'0 0.0
2017-Nov-18 01:30N 70°02' E 020°51'0 0.0
2017-Nov-18 01:00N 70°02' E 020°51'0 0.0
2017-Nov-18 00:30N 70°02' E 020°51'0 0.0
2017-Nov-18 00:00N 70°02' E 020°51'0 0.0
2017-Nov-17 23:30N 70°02' E 020°51'0 0.0
2017-Nov-17 23:00N 70°02' E 020°51'0 0.3
2017-Nov-17 22:30N 70°02' E 020°51'2 4.2
2017-Nov-17 22:00N 70°04' E 020°49'2 4.1
2017-Nov-17 21:30N 70°02' E 020°51'3 6.3
2017-Nov-17 21:00N 70°05' E 020°47'3 6.2
2017-Nov-17 20:30N 70°02' E 020°51'0 0.0
2017-Nov-17 20:00N 70°02' E 020°51'3 6.2
2017-Nov-17 19:30N 70°05' E 020°47'3 6.4
2017-Nov-17 19:00N 70°02' E 020°51'0 0.0
2017-Nov-17 18:29N 70°02' E 020°51'0 0.0
2017-Nov-17 17:59N 70°02' E 020°51'3 6.5
2017-Nov-17 17:30N 70°05' E 020°47'3 6.2
2017-Nov-17 17:00N 70°02' E 020°51'0 0.0
2017-Nov-17 16:30N 70°02' E 020°51'3 6.3
2017-Nov-17 16:00N 70°05' E 020°47'3 6.4
2017-Nov-17 15:30N 70°02' E 020°51'3 6.1
2017-Nov-17 15:00N 70°05' E 020°47'3 6.1
2017-Nov-17 14:30N 70°02' E 020°51'3 6.3
2017-Nov-17 14:00N 70°05' E 020°47'3 6.3
2017-Nov-17 13:30N 70°02' E 020°51'3 6.4
2017-Nov-17 13:00N 70°05' E 020°47'3 6.2
2017-Nov-17 12:30N 70°02' E 020°51'3 6.4
2017-Nov-17 12:00N 70°05' E 020°47'3 6.2
2017-Nov-17 11:30N 70°02' E 020°51'0 0.0
2017-Nov-17 11:00N 70°02' E 020°51'1 2.6
2017-Nov-17 10:30N 70°03' E 020°50'1 2.5
2017-Nov-17 10:00N 70°04' E 020°49'3 5.0
2017-Nov-17 09:30N 70°02' E 020°51'0 0.0
2017-Nov-17 09:00N 70°02' E 020°51'3 6.2
2017-Nov-17 08:30N 70°05' E 020°47'3 5.9
2017-Nov-17 07:58N 70°02' E 020°51'3 6.5
2017-Nov-17 07:30N 70°05' E 020°47'3 5.6
2017-Nov-17 06:58N 70°02' E 020°51'1 1.6
2017-Nov-17 06:30N 70°03' E 020°50'1 2.6
2017-Nov-17 06:00N 70°04' E 020°49'2 3.8
2017-Nov-17 05:28N 70°02' E 020°51'0 0.0
2017-Nov-17 04:58N 70°02' E 020°51'0 0.0
2017-Nov-17 04:28N 70°02' E 020°51'0 0.0
2017-Nov-17 03:58N 70°02' E 020°51'0 0.0
2017-Nov-17 03:28N 70°02' E 020°51'0 0.0
2017-Nov-17 02:58N 70°02' E 020°51'0 0.0
2017-Nov-17 02:28N 70°02' E 020°51'0 0.0
2017-Nov-17 01:58N 70°02' E 020°51'0 0.0
2017-Nov-17 01:28N 70°02' E 020°51'0 0.0
2017-Nov-17 00:58N 70°02' E 020°51'0 0.0
2017-Nov-17 00:28N 70°02' E 020°51'0 0.0
2017-Nov-16 23:58N 70°02' E 020°51'0 0.0
2017-Nov-16 23:28N 70°02' E 020°51'0 0.0
2017-Nov-16 23:01N 70°02' E 020°51'1 2.0
2017-Nov-16 22:30N 70°03' E 020°50'0 0.2
2017-Nov-16 22:00N 70°03' E 020°50'1 2.2
2017-Nov-16 21:29N 70°02' E 020°51'3 6.4
2017-Nov-16 21:01N 70°05' E 020°47'3 6.0
2017-Nov-16 20:30N 70°02' E 020°51'0 0.1
2017-Nov-16 19:59N 70°02' E 020°51'3 6.3
2017-Nov-16 19:31N 70°05' E 020°47'3 5.8
2017-Nov-16 18:59N 70°02' E 020°51'0 0.0
2017-Nov-16 18:29N 70°02' E 020°51'0 0.0
2017-Nov-16 17:59N 70°02' E 020°51'3 6.3
2017-Nov-16 17:30N 70°05' E 020°47'3 6.0
2017-Nov-16 16:59N 70°02' E 020°51'0 0.0
2017-Nov-16 16:29N 70°02' E 020°51'3 6.0
2017-Nov-16 15:58N 70°05' E 020°47'3 6.4
2017-Nov-16 15:29N 70°02' E 020°51'3 6.1
2017-Nov-16 14:58N 70°05' E 020°47'3 6.4
2017-Nov-16 14:28N 70°02' E 020°51'3 6.5
2017-Nov-16 13:59N 70°05' E 020°47'3 6.3
2017-Nov-16 13:30N 70°02' E 020°51'3 6.2
2017-Nov-16 13:00N 70°05' E 020°47'3 6.1
2017-Nov-16 12:29N 70°02' E 020°51'3 6.3
2017-Nov-16 12:00N 70°05' E 020°47'3 6.1
2017-Nov-16 11:29N 70°02' E 020°51'0 0.0
2017-Nov-16 10:59N 70°02' E 020°51'0 0.0
2017-Nov-16 10:28N 70°02' E 020°51'3 6.2
2017-Nov-16 10:00N 70°05' E 020°48'3 5.4
2017-Nov-16 09:28N 70°02' E 020°51'0 0.0
2017-Nov-16 08:58N 70°02' E 020°51'3 6.8
2017-Nov-16 08:30N 70°05' E 020°47'3 6.2
2017-Nov-16 08:00N 70°02' E 020°51'3 6.2
2017-Nov-16 07:30N 70°05' E 020°47'3 6.2
2017-Nov-16 06:59N 70°02' E 020°51'1 1.9
2017-Nov-16 06:30N 70°03' E 020°50'1 2.2
2017-Nov-16 06:00N 70°04' E 020°49'2 4.0
2017-Nov-16 05:30N 70°02' E 020°51'0 0.0
2017-Nov-16 05:00N 70°02' E 020°51'0 0.0
2017-Nov-16 04:30N 70°02' E 020°51'0 0.0
2017-Nov-16 04:00N 70°02' E 020°51'0 0.0
2017-Nov-16 03:30N 70°02' E 020°51'0 0.0
2017-Nov-16 03:00N 70°02' E 020°51'0 0.0
2017-Nov-16 02:30N 70°02' E 020°51'0 0.0
2017-Nov-16 02:00N 70°02' E 020°51'0 0.0
2017-Nov-16 01:30N 70°02' E 020°51'0 0.0
2017-Nov-16 01:00N 70°02' E 020°51'0 0.0
2017-Nov-16 00:30N 70°02' E 020°51'0 0.0
2017-Nov-16 00:00N 70°02' E 020°51'0 0.0
2017-Nov-15 23:30N 70°02' E 020°51'0 0.0
2017-Nov-15 23:00N 70°02' E 020°51'0 0.1
2017-Nov-15 22:30N 70°02' E 020°51'2 4.1
2017-Nov-15 22:00N 70°04' E 020°49'2 4.1
2017-Nov-15 21:30N 70°02' E 020°51'3 6.3
2017-Nov-15 21:00N 70°05' E 020°47'3 6.3
2017-Nov-15 20:30N 70°02' E 020°51'0 0.1
2017-Nov-15 19:58N 70°02' E 020°51'3 7.0
2017-Nov-15 19:30N 70°05' E 020°47'3 5.9
2017-Nov-15 18:58N 70°02' E 020°51'0 0.0
2017-Nov-15 18:28N 70°02' E 020°51'0 0.0
2017-Nov-15 17:58N 70°02' E 020°51'3 6.6
2017-Nov-15 17:30N 70°05' E 020°47'3 6.3
2017-Nov-15 17:00N 70°02' E 020°51'0 0.0
2017-Nov-15 16:30N 70°02' E 020°51'3 6.2
2017-Nov-15 16:00N 70°05' E 020°47'3 6.3
2017-Nov-15 15:30N 70°02' E 020°51'3 6.2
2017-Nov-15 15:00N 70°05' E 020°47'3 6.1
2017-Nov-15 14:30N 70°02' E 020°51'3 6.3
2017-Nov-15 14:00N 70°05' E 020°47'3 6.2
2017-Nov-15 13:30N 70°02' E 020°51'3 6.1
2017-Nov-15 13:00N 70°05' E 020°47'3 6.3
2017-Nov-15 12:30N 70°02' E 020°51'3 6.2
2017-Nov-15 12:00N 70°05' E 020°47'3 6.4
2017-Nov-15 11:30N 70°02' E 020°51'0 0.0
2017-Nov-15 11:00N 70°02' E 020°51'0 0.8
2017-Nov-15 10:30N 70°02' E 020°51'2 4.4
2017-Nov-15 10:00N 70°04' E 020°49'3 5.1
2017-Nov-15 09:30N 70°02' E 020°51'0 0.0
2017-Nov-15 09:00N 70°02' E 020°51'3 6.1
2017-Nov-15 08:30N 70°05' E 020°47'3 5.9
2017-Nov-15 08:00N 70°02' E 020°51'3 6.2
2017-Nov-15 07:30N 70°05' E 020°47'3 6.2
2017-Nov-15 07:00N 70°02' E 020°51'1 1.6
2017-Nov-15 06:30N 70°03' E 020°50'1 2.7
2017-Nov-15 06:00N 70°04' E 020°48'2 4.2
2017-Nov-15 05:30N 70°02' E 020°51'0 0.0
2017-Nov-15 05:00N 70°02' E 020°51'0 0.0
2017-Nov-15 04:30N 70°02' E 020°51'0 0.0
2017-Nov-15 04:00N 70°02' E 020°51'0 0.0
2017-Nov-15 03:30N 70°02' E 020°51'0 0.0
2017-Nov-15 03:00N 70°02' E 020°51'0 0.0
2017-Nov-15 02:30N 70°02' E 020°51'0 0.0
2017-Nov-15 02:00N 70°02' E 020°51'0 0.0
2017-Nov-15 01:30N 70°02' E 020°51'0 0.0
2017-Nov-15 01:00N 70°02' E 020°51'0 0.0
2017-Nov-15 00:30N 70°02' E 020°51'0 0.0
2017-Nov-15 00:00N 70°02' E 020°51'0 0.0
2017-Nov-14 23:30N 70°02' E 020°51'0 0.0
2017-Nov-14 23:00N 70°02' E 020°51'1 2.8
2017-Nov-14 22:30N 70°03' E 020°50'1 1.3
2017-Nov-14 22:00N 70°03' E 020°51'1 1.5
2017-Nov-14 21:30N 70°02' E 020°51'3 6.1
2017-Nov-14 21:00N 70°05' E 020°47'3 6.1
2017-Nov-14 20:30N 70°02' E 020°51'  
Track history (hours):
 
Tides and Currents Weather Stations Pressure Air Temp Water Temp Dewpoint Dewpoint Depression Visibility Wind Speed Wind Dir Waves Ship Positions

Reinoy

Last reported at 2017-Nov-24 20:30 UTC. Time now 2017-Nov-24 20:41 UTC.
Position N 70°02' E 020°51'.

Length 46 m; draft 3 m.

Type: Passenger vessel. MMSI: 257350400.

Date/timePositionNaut miles runAvg speedWind from/ knotsBaromVisibWave heightAir tempDewpointWater temp
2017-Nov-24 20:30N 70°02' E 020°51'0 0.0
2017-Nov-24 20:00N 70°02' E 020°51'3 6.3
2017-Nov-24 19:30N 70°05' E 020°47'3 6.2
2017-Nov-24 19:00N 70°02' E 020°51'0 0.0
2017-Nov-24 18:30N 70°02' E 020°51'0 0.0
2017-Nov-24 18:00N 70°02' E 020°51'3 6.3
2017-Nov-24 17:30N 70°05' E 020°47'3 6.1
2017-Nov-24 17:00N 70°02' E 020°51'0 0.0
2017-Nov-24 16:30N 70°02' E 020°51'3 6.4
2017-Nov-24 16:00N 70°05' E 020°47'3 6.4
2017-Nov-24 15:30N 70°02' E 020°51'3 6.2
2017-Nov-24 15:00N 70°05' E 020°47'3 6.2
2017-Nov-24 14:30N 70°02' E 020°51'3 6.1
2017-Nov-24 14:00N 70°05' E 020°47'3 6.2
2017-Nov-24 13:30N 70°02' E 020°51'3 6.1
2017-Nov-24 12:59N 70°05' E 020°47'3 6.5
2017-Nov-24 12:30N 70°02' E 020°51'3 6.1
2017-Nov-24 12:00N 70°05' E 020°47'3 6.2
2017-Nov-24 11:29N 70°02' E 020°51'0 0.0
2017-Nov-24 11:00N 70°02' E 020°51'0 0.8
2017-Nov-24 10:30N 70°02' E 020°51'2 4.2
2017-Nov-24 09:58N 70°04' E 020°49'3 5.4
2017-Nov-24 09:29N 70°02' E 020°51'0 0.1
2017-Nov-24 09:00N 70°02' E 020°51'3 6.3
2017-Nov-24 08:30N 70°05' E 020°47'3 5.7
2017-Nov-24 07:58N 70°02' E 020°51'0 0.0
2017-Nov-24 07:28N 70°02' E 020°51'0 0.0
2017-Nov-24 06:58N 70°02' E 020°51'0 0.0
2017-Nov-24 06:28N 70°02' E 020°51'0 0.0
2017-Nov-24 05:58N 70°02' E 020°51'0 0.0
2017-Nov-24 05:28N 70°02' E 020°51'0 0.0
2017-Nov-24 04:58N 70°02' E 020°51'0 0.0
2017-Nov-24 04:28N 70°02' E 020°51'0 0.0
2017-Nov-24 04:01N 70°02' E 020°51'0 0.0
2017-Nov-24 03:31N 70°02' E 020°51'0 0.0
2017-Nov-24 03:01N 70°02' E 020°51'0 0.0
2017-Nov-24 02:27N 70°02' E 020°51'0 0.0
2017-Nov-24 02:00N 70°02' E 020°51'0 0.0
2017-Nov-24 01:30N 70°02' E 020°51'0 0.0
2017-Nov-24 01:00N 70°02' E 020°51'0 0.0
2017-Nov-24 00:30N 70°02' E 020°51'0 0.0
2017-Nov-24 00:00N 70°02' E 020°51'0 0.0
2017-Nov-23 23:30N 70°02' E 020°51'0 0.0
2017-Nov-23 23:00N 70°02' E 020°51'0 0.0
2017-Nov-23 22:30N 70°02' E 020°51'0 0.0
2017-Nov-23 22:00N 70°02' E 020°51'0 0.0
2017-Nov-23 21:30N 70°02' E 020°51'0 0.0
2017-Nov-23 21:00N 70°02' E 020°51'0 0.0
2017-Nov-23 20:30N 70°02' E 020°51'0 0.0
2017-Nov-23 20:00N 70°02' E 020°51'0 0.0
2017-Nov-23 19:30N 70°02' E 020°51'0 0.0
2017-Nov-23 19:00N 70°02' E 020°51'0 0.0
2017-Nov-23 18:30N 70°02' E 020°51'0 0.0
2017-Nov-23 18:00N 70°02' E 020°51'0 0.0
2017-Nov-23 17:30N 70°02' E 020°51'0 0.0
2017-Nov-23 17:00N 70°02' E 020°51'0 0.0
2017-Nov-23 16:30N 70°02' E 020°51'0 0.0
2017-Nov-23 16:00N 70°02' E 020°51'0 0.0
2017-Nov-23 15:30N 70°02' E 020°51'0 0.0
2017-Nov-23 15:00N 70°02' E 020°51'0 0.0
2017-Nov-23 14:30N 70°02' E 020°51'0 0.0
2017-Nov-23 14:00N 70°02' E 020°51'0 0.0
2017-Nov-23 13:27N 70°02' E 020°51'0 0.0
2017-Nov-23 13:00N 70°02' E 020°51'0 0.0
2017-Nov-23 12:30N 70°02' E 020°51'3 6.2
2017-Nov-23 11:59N 70°05' E 020°47'3 6.4
2017-Nov-23 11:30N 70°02' E 020°51'0 0.0
2017-Nov-23 11:00N 70°02' E 020°51'0 0.0
2017-Nov-23 10:30N 70°02' E 020°51'3 5.1
2017-Nov-23 10:00N 70°04' E 020°49'3 5.2
2017-Nov-23 09:30N 70°02' E 020°51'0 0.0
2017-Nov-23 09:00N 70°02' E 020°51'3 6.1
2017-Nov-23 08:30N 70°05' E 020°47'3 6.3
2017-Nov-23 08:00N 70°02' E 020°51'3 6.2
2017-Nov-23 07:30N 70°05' E 020°47'3 6.2
2017-Nov-23 07:00N 70°02' E 020°51'1 1.8
2017-Nov-23 06:30N 70°03' E 020°50'1 2.9
2017-Nov-23 06:00N 70°04' E 020°48'2 4.7
2017-Nov-23 05:30N 70°02' E 020°51'0 0.0
2017-Nov-23 05:00N 70°02' E 020°51'0 0.0
2017-Nov-23 04:29N 70°02' E 020°51'0 0.0
2017-Nov-23 04:00N 70°02' E 020°51'0 0.0
2017-Nov-23 03:30N 70°02' E 020°51'0 0.0
2017-Nov-23 03:00N 70°02' E 020°51'0 0.0
2017-Nov-23 02:30N 70°02' E 020°51'0 0.0
2017-Nov-23 02:00N 70°02' E 020°51'0 0.0
2017-Nov-23 01:30N 70°02' E 020°51'0 0.0
2017-Nov-23 01:00N 70°02' E 020°51'0 0.0
2017-Nov-23 00:29N 70°02' E 020°51'0 0.0
2017-Nov-23 00:00N 70°02' E 020°51'0 0.0
2017-Nov-22 23:30N 70°02' E 020°51'0 0.0
2017-Nov-22 23:00N 70°02' E 020°51'1 1.3
2017-Nov-22 22:30N 70°03' E 020°51'1 1.2
2017-Nov-22 22:00N 70°03' E 020°50'1 2.6
2017-Nov-22 21:30N 70°02' E 020°51'3 6.3
2017-Nov-22 21:00N 70°05' E 020°47'3 6.2
2017-Nov-22 20:30N 70°02' E 020°51'0 0.0
2017-Nov-22 19:59N 70°02' E 020°51'3 6.3
2017-Nov-22 19:30N 70°05' E 020°47'  
2017-Nov-20 00:30N 70°02' E 020°51'0 0.0
2017-Nov-20 00:00N 70°02' E 020°51'0 0.0
2017-Nov-19 23:30N 70°02' E 020°51'0 0.0
2017-Nov-19 23:00N 70°02' E 020°51'0 0.0
2017-Nov-19 22:30N 70°02' E 020°51'0 0.0
2017-Nov-19 22:00N 70°02' E 020°51'2 5.1
2017-Nov-19 21:30N 70°04' E 020°48'2 4.9
2017-Nov-19 21:00N 70°02' E 020°51'0 0.0
2017-Nov-19 20:28N 70°02' E 020°51'0 0.0
2017-Nov-19 19:58N 70°02' E 020°51'0 0.0
2017-Nov-19 19:28N 70°02' E 020°51'0 0.0
2017-Nov-19 18:57N 70°02' E 020°51'3 7.0
2017-Nov-19 18:31N 70°05' E 020°47'3 6.1
2017-Nov-19 18:00N 70°02' E 020°51'0 0.1
2017-Nov-19 17:30N 70°02' E 020°51'3 6.4
2017-Nov-19 17:00N 70°05' E 020°47'3 6.3
2017-Nov-19 16:30N 70°02' E 020°51'0 0.0
2017-Nov-19 16:00N 70°02' E 020°51'0 0.0
2017-Nov-19 15:30N 70°02' E 020°51'3 6.2
2017-Nov-19 15:00N 70°05' E 020°47'3 6.2
2017-Nov-19 14:29N 70°02' E 020°51'3 6.3
2017-Nov-19 14:00N 70°05' E 020°47'3 6.4
2017-Nov-19 13:30N 70°02' E 020°51'0 0.0
2017-Nov-19 13:00N 70°02' E 020°51'0 0.0
2017-Nov-19 12:27N 70°02' E 020°51'0 0.0
2017-Nov-19 12:00N 70°02' E 020°51'0 0.0
2017-Nov-19 11:30N 70°02' E 020°51'0 0.0
2017-Nov-19 11:00N 70°02' E 020°51'0 0.0
2017-Nov-19 10:29N 70°02' E 020°51'0 0.0
2017-Nov-19 09:59N 70°02' E 020°51'3 6.2
2017-Nov-19 09:29N 70°05' E 020°47'3 6.3
2017-Nov-19 09:00N 70°02' E 020°51'0 0.0
2017-Nov-19 08:28N 70°02' E 020°51'0 0.0
2017-Nov-19 07:58N 70°02' E 020°51'0 0.0
2017-Nov-19 07:28N 70°02' E 020°51'0 0.0
2017-Nov-19 06:58N 70°02' E 020°51'0 0.0
2017-Nov-19 06:28N 70°02' E 020°51'0 0.0
2017-Nov-19 05:58N 70°02' E 020°51'0 0.0
2017-Nov-19 05:28N 70°02' E 020°51'0 0.0
2017-Nov-19 04:58N 70°02' E 020°51'0 0.0
2017-Nov-19 04:28N 70°02' E 020°51'0 0.0
2017-Nov-19 03:58N 70°02' E 020°51'0 0.0
2017-Nov-19 03:28N 70°02' E 020°51'0 0.0
2017-Nov-19 02:58N 70°02' E 020°51'0 0.0
2017-Nov-19 02:28N 70°02' E 020°51'0 0.0
2017-Nov-19 01:58N 70°02' E 020°51'0 0.0
2017-Nov-19 01:28N 70°02' E 020°51'0 0.0
2017-Nov-19 00:58N 70°02' E 020°51'0 0.0
2017-Nov-19 00:28N 70°02' E 020°51'0 0.0
2017-Nov-18 23:58N 70°02' E 020°51'0 0.0
2017-Nov-18 23:28N 70°02' E 020°51'0 0.0
2017-Nov-18 22:58N 70°02' E 020°51'0 0.0
2017-Nov-18 22:28N 70°02' E 020°51'0 0.0
2017-Nov-18 21:58N 70°02' E 020°51'2 4.7
2017-Nov-18 21:30N 70°04' E 020°49'2 4.8
2017-Nov-18 21:01N 70°02' E 020°51'0 0.2
2017-Nov-18 20:30N 70°02' E 020°51'0 0.0
2017-Nov-18 20:00N 70°02' E 020°51'0 0.0
2017-Nov-18 19:30N 70°02' E 020°51'0 0.0
2017-Nov-18 19:00N 70°02' E 020°51'0 0.0
2017-Nov-18 18:30N 70°02' E 020°51'0 0.0
2017-Nov-18 18:00N 70°02' E 020°51'3 6.1
2017-Nov-18 17:29N 70°05' E 020°47'3 6.3
2017-Nov-18 17:00N 70°02' E 020°51'0 0.0
2017-Nov-18 16:30N 70°02' E 020°51'3 6.1
2017-Nov-18 15:59N 70°05' E 020°47'3 6.3
2017-Nov-18 15:30N 70°02' E 020°51'0 0.0
2017-Nov-18 14:59N 70°02' E 020°51'0 0.0
2017-Nov-18 14:29N 70°02' E 020°51'0 0.0
2017-Nov-18 14:00N 70°02' E 020°51'3 6.3
2017-Nov-18 13:30N 70°05' E 020°47'3 6.2
2017-Nov-18 13:00N 70°02' E 020°51'0 0.0
2017-Nov-18 12:29N 70°02' E 020°51'0 0.0
2017-Nov-18 11:59N 70°02' E 020°51'0 0.0
2017-Nov-18 11:29N 70°02' E 020°51'0 0.0
2017-Nov-18 10:59N 70°02' E 020°51'0 0.0
2017-Nov-18 10:29N 70°02' E 020°51'0 0.0
2017-Nov-18 10:00N 70°02' E 020°51'3 6.1
2017-Nov-18 09:29N 70°05' E 020°47'3 6.3
2017-Nov-18 09:00N 70°02' E 020°51'0 0.0
2017-Nov-18 08:30N 70°02' E 020°51'0 0.0
2017-Nov-18 08:00N 70°02' E 020°51'3 6.1
2017-Nov-18 07:30N 70°05' E 020°47'3 6.2
2017-Nov-18 06:59N 70°02' E 020°51'0 0.0
2017-Nov-18 06:30N 70°02' E 020°51'0 0.0
2017-Nov-18 06:00N 70°02' E 020°51'0 0.0
2017-Nov-18 05:30N 70°02' E 020°51'0 0.0
2017-Nov-18 05:00N 70°02' E 020°51'0 0.0
2017-Nov-18 04:30N 70°02' E 020°51'0 0.0
2017-Nov-18 04:00N 70°02' E 020°51'0 0.0
2017-Nov-18 03:30N 70°02' E 020°51'0 0.0
2017-Nov-18 03:00N 70°02' E 020°51'0 0.0
2017-Nov-18 02:27N 70°02' E 020°51'0 0.0
2017-Nov-18 02:00N 70°02' E 020°51'0 0.0
2017-Nov-18 01:30N 70°02' E 020°51'0 0.0
2017-Nov-18 01:00N 70°02' E 020°51'0 0.0
2017-Nov-18 00:30N 70°02' E 020°51'0 0.0
2017-Nov-18 00:00N 70°02' E 020°51'0 0.0
2017-Nov-17 23:30N 70°02' E 020°51'0 0.0
2017-Nov-17 23:00N 70°02' E 020°51'0 0.3
2017-Nov-17 22:30N 70°02' E 020°51'2 4.2
2017-Nov-17 22:00N 70°04' E 020°49'2 4.1
2017-Nov-17 21:30N 70°02' E 020°51'3 6.3
2017-Nov-17 21:00N 70°05' E 020°47'3 6.2
2017-Nov-17 20:30N 70°02' E 020°51'0 0.0
2017-Nov-17 20:00N 70°02' E 020°51'3 6.2
2017-Nov-17 19:30N 70°05' E 020°47'3 6.4
2017-Nov-17 19:00N 70°02' E 020°51'0 0.0
2017-Nov-17 18:29N 70°02' E 020°51'0 0.0
2017-Nov-17 17:59N 70°02' E 020°51'3 6.5
2017-Nov-17 17:30N 70°05' E 020°47'3 6.2
2017-Nov-17 17:00N 70°02' E 020°51'0 0.0
2017-Nov-17 16:30N 70°02' E 020°51'3 6.3
2017-Nov-17 16:00N 70°05' E 020°47'3 6.4
2017-Nov-17 15:30N 70°02' E 020°51'3 6.1
2017-Nov-17 15:00N 70°05' E 020°47'3 6.1
2017-Nov-17 14:30N 70°02' E 020°51'3 6.3
2017-Nov-17 14:00N 70°05' E 020°47'3 6.3
2017-Nov-17 13:30N 70°02' E 020°51'3 6.4
2017-Nov-17 13:00N 70°05' E 020°47'3 6.2
2017-Nov-17 12:30N 70°02' E 020°51'3 6.4
2017-Nov-17 12:00N 70°05' E 020°47'3 6.2
2017-Nov-17 11:30N 70°02' E 020°51'0 0.0
2017-Nov-17 11:00N 70°02' E 020°51'1 2.6
2017-Nov-17 10:30N 70°03' E 020°50'1 2.5
2017-Nov-17 10:00N 70°04' E 020°49'3 5.0
2017-Nov-17 09:30N 70°02' E 020°51'0 0.0
2017-Nov-17 09:00N 70°02' E 020°51'3 6.2
2017-Nov-17 08:30N 70°05' E 020°47'3 5.9
2017-Nov-17 07:58N 70°02' E 020°51'3 6.5
2017-Nov-17 07:30N 70°05' E 020°47'3 5.6
2017-Nov-17 06:58N 70°02' E 020°51'1 1.6
2017-Nov-17 06:30N 70°03' E 020°50'1 2.6
2017-Nov-17 06:00N 70°04' E 020°49'2 3.8
2017-Nov-17 05:28N 70°02' E 020°51'0 0.0
2017-Nov-17 04:58N 70°02' E 020°51'0 0.0
2017-Nov-17 04:28N 70°02' E 020°51'0 0.0
2017-Nov-17 03:58N 70°02' E 020°51'0 0.0
2017-Nov-17 03:28N 70°02' E 020°51'0 0.0
2017-Nov-17 02:58N 70°02' E 020°51'0 0.0
2017-Nov-17 02:28N 70°02' E 020°51'0 0.0
2017-Nov-17 01:58N 70°02' E 020°51'0 0.0
2017-Nov-17 01:28N 70°02' E 020°51'0 0.0
2017-Nov-17 00:58N 70°02' E 020°51'0 0.0
2017-Nov-17 00:28N 70°02' E 020°51'0 0.0
2017-Nov-16 23:58N 70°02' E 020°51'0 0.0
2017-Nov-16 23:28N 70°02' E 020°51'0 0.0
2017-Nov-16 23:01N 70°02' E 020°51'1 2.0
2017-Nov-16 22:30N 70°03' E 020°50'0 0.2
2017-Nov-16 22:00N 70°03' E 020°50'1 2.2
2017-Nov-16 21:29N 70°02' E 020°51'3 6.4
2017-Nov-16 21:01N 70°05' E 020°47'3 6.0
2017-Nov-16 20:30N 70°02' E 020°51'0 0.1
2017-Nov-16 19:59N 70°02' E 020°51'3 6.3
2017-Nov-16 19:31N 70°05' E 020°47'3 5.8
2017-Nov-16 18:59N 70°02' E 020°51'0 0.0
2017-Nov-16 18:29N 70°02' E 020°51'0 0.0
2017-Nov-16 17:59N 70°02' E 020°51'3 6.3
2017-Nov-16 17:30N 70°05' E 020°47'3 6.0
2017-Nov-16 16:59N 70°02' E 020°51'0 0.0
2017-Nov-16 16:29N 70°02' E 020°51'3 6.0
2017-Nov-16 15:58N 70°05' E 020°47'3 6.4
2017-Nov-16 15:29N 70°02' E 020°51'3 6.1
2017-Nov-16 14:58N 70°05' E 020°47'3 6.4
2017-Nov-16 14:28N 70°02' E 020°51'3 6.5
2017-Nov-16 13:59N 70°05' E 020°47'3 6.3
2017-Nov-16 13:30N 70°02' E 020°51'3 6.2
2017-Nov-16 13:00N 70°05' E 020°47'3 6.1
2017-Nov-16 12:29N 70°02' E 020°51'3 6.3
2017-Nov-16 12:00N 70°05' E 020°47'3 6.1
2017-Nov-16 11:29N 70°02' E 020°51'0 0.0
2017-Nov-16 10:59N 70°02' E 020°51'0 0.0
2017-Nov-16 10:28N 70°02' E 020°51'3 6.2
2017-Nov-16 10:00N 70°05' E 020°48'3 5.4
2017-Nov-16 09:28N 70°02' E 020°51'0 0.0
2017-Nov-16 08:58N 70°02' E 020°51'3 6.8
2017-Nov-16 08:30N 70°05' E 020°47'3 6.2
2017-Nov-16 08:00N 70°02' E 020°51'3 6.2
2017-Nov-16 07:30N 70°05' E 020°47'3 6.2
2017-Nov-16 06:59N 70°02' E 020°51'1 1.9
2017-Nov-16 06:30N 70°03' E 020°50'1 2.2
2017-Nov-16 06:00N 70°04' E 020°49'2 4.0
2017-Nov-16 05:30N 70°02' E 020°51'0 0.0
2017-Nov-16 05:00N 70°02' E 020°51'0 0.0
2017-Nov-16 04:30N 70°02' E 020°51'0 0.0
2017-Nov-16 04:00N 70°02' E 020°51'0 0.0
2017-Nov-16 03:30N 70°02' E 020°51'0 0.0
2017-Nov-16 03:00N 70°02' E 020°51'0 0.0
2017-Nov-16 02:30N 70°02' E 020°51'0 0.0
2017-Nov-16 02:00N 70°02' E 020°51'0 0.0
2017-Nov-16 01:30N 70°02' E 020°51'0 0.0
2017-Nov-16 01:00N 70°02' E 020°51'0 0.0
2017-Nov-16 00:30N 70°02' E 020°51'0 0.0
2017-Nov-16 00:00N 70°02' E 020°51'0 0.0
2017-Nov-15 23:30N 70°02' E 020°51'0 0.0
2017-Nov-15 23:00N 70°02' E 020°51'0 0.1
2017-Nov-15 22:30N 70°02' E 020°51'2 4.1
2017-Nov-15 22:00N 70°04' E 020°49'2 4.1
2017-Nov-15 21:30N 70°02' E 020°51'3 6.3
2017-Nov-15 21:00N 70°05' E 020°47'3 6.3
2017-Nov-15 20:30N 70°02' E 020°51'0 0.1
2017-Nov-15 19:58N 70°02' E 020°51'3 7.0
2017-Nov-15 19:30N 70°05' E 020°47'3 5.9
2017-Nov-15 18:58N 70°02' E 020°51'0 0.0
2017-Nov-15 18:28N 70°02' E 020°51'0 0.0
2017-Nov-15 17:58N 70°02' E 020°51'3 6.6
2017-Nov-15 17:30N 70°05' E 020°47'3 6.3
2017-Nov-15 17:00N 70°02' E 020°51'0 0.0
2017-Nov-15 16:30N 70°02' E 020°51'3 6.2
2017-Nov-15 16:00N 70°05' E 020°47'3 6.3
2017-Nov-15 15:30N 70°02' E 020°51'3 6.2
2017-Nov-15 15:00N 70°05' E 020°47'3 6.1
2017-Nov-15 14:30N 70°02' E 020°51'3 6.3
2017-Nov-15 14:00N 70°05' E 020°47'3 6.2
2017-Nov-15 13:30N 70°02' E 020°51'3 6.1
2017-Nov-15 13:00N 70°05' E 020°47'3 6.3
2017-Nov-15 12:30N 70°02' E 020°51'3 6.2
2017-Nov-15 12:00N 70°05' E 020°47'3 6.4
2017-Nov-15 11:30N 70°02' E 020°51'0 0.0
2017-Nov-15 11:00N 70°02' E 020°51'0 0.8
2017-Nov-15 10:30N 70°02' E 020°51'2 4.4
2017-Nov-15 10:00N 70°04' E 020°49'3 5.1
2017-Nov-15 09:30N 70°02' E 020°51'0 0.0
2017-Nov-15 09:00N 70°02' E 020°51'3 6.1
2017-Nov-15 08:30N 70°05' E 020°47'3 5.9
2017-Nov-15 08:00N 70°02' E 020°51'3 6.2
2017-Nov-15 07:30N 70°05' E 020°47'3 6.2
2017-Nov-15 07:00N 70°02' E 020°51'1 1.6
2017-Nov-15 06:30N 70°03' E 020°50'1 2.7
2017-Nov-15 06:00N 70°04' E 020°48'2 4.2
2017-Nov-15 05:30N 70°02' E 020°51'0 0.0
2017-Nov-15 05:00N 70°02' E 020°51'0 0.0
2017-Nov-15 04:30N 70°02' E 020°51'0 0.0
2017-Nov-15 04:00N 70°02' E 020°51'0 0.0
2017-Nov-15 03:30N 70°02' E 020°51'0 0.0
2017-Nov-15 03:00N 70°02' E 020°51'0 0.0
2017-Nov-15 02:30N 70°02' E 020°51'0 0.0
2017-Nov-15 02:00N 70°02' E 020°51'0 0.0
2017-Nov-15 01:30N 70°02' E 020°51'0 0.0
2017-Nov-15 01:00N 70°02' E 020°51'0 0.0
2017-Nov-15 00:30N 70°02' E 020°51'0 0.0
2017-Nov-15 00:00N 70°02' E 020°51'0 0.0
2017-Nov-14 23:30N 70°02' E 020°51'0 0.0
2017-Nov-14 23:00N 70°02' E 020°51'1 2.8
2017-Nov-14 22:30N 70°03' E 020°50'1 1.3
2017-Nov-14 22:00N 70°03' E 020°51'1 1.5
2017-Nov-14 21:30N 70°02' E 020°51'3 6.1
2017-Nov-14 21:00N 70°05' E 020°47'3 6.1
2017-Nov-14 20:30N 70°02' E 020°51'  

Dump ship's entire track history